Time;durP1;ratioP1;P1;durP2;ratioP2;P2;SDS_P1;SDS_P2;PMS_P1;PMS_P2;Temp;Humidity;BMP_temperature;BMP_pressure;BME280_temperature;BME280_humidity;BME280_pressure;Samples;Min_cycle;Max_cycle;Signal;HPM_P1;HPM_P2
2022/03/05 00:02:13;;;;;;;;;58.50;43.50;;;;;10.14;70.18;101247.06;5073257;28;47118;-61
2022/03/05 00:04:42;;;;;;;;;58.50;44.75;;;;;10.23;71.22;101253.81;5076144;28;45307;-60
2022/03/05 00:07:07;;;;;;;;;54.50;41.50;;;;;10.26;69.90;101251.00;5084324;27;45394;-56
2022/03/05 00:09:33;;;;;;;;;60.50;45.00;;;;;10.24;70.23;101258.19;5057431;28;45168;-59
2022/03/05 00:11:58;;;;;;;;;48.50;40.50;;;;;10.22;70.51;101255.59;5085806;27;46478;-59
2022/03/05 00:14:25;;;;;;;;;61.00;43.75;;;;;10.09;70.33;101238.44;5095838;27;45425;-63
2022/03/05 00:16:50;;;;;;;;;63.75;49.25;;;;;9.98;69.97;101227.41;5081317;27;45408;-62
2022/03/05 00:19:16;;;;;;;;;51.25;43.75;;;;;10.11;69.66;101235.69;5072911;28;45486;-62
2022/03/05 00:21:42;;;;;;;;;50.75;43.75;;;;;10.15;70.51;101242.59;5075326;28;45781;-60
2022/03/05 00:24:07;;;;;;;;;56.75;44.00;;;;;10.23;70.63;101246.69;5058452;28;45320;-58
2022/03/05 00:26:33;;;;;;;;;57.75;48.25;;;;;10.29;70.11;101250.88;5084928;27;45266;-56
2022/03/05 00:28:58;;;;;;;;;55.50;43.25;;;;;10.29;70.54;101245.56;5059251;27;45738;-57
2022/03/05 00:31:24;;;;;;;;;52.75;41.25;;;;;10.29;70.35;101245.56;5071873;27;45295;-55
2022/03/05 00:33:52;;;;;;;;;58.25;44.00;;;;;10.31;70.21;101252.53;5072282;28;45187;-62
2022/03/05 00:36:23;;;;;;;;;45.50;38.25;;;;;10.25;69.94;101249.28;5077651;28;45273;-60
2022/03/05 00:38:49;;;;;;;;;51.50;44.00;;;;;10.11;70.76;101241.88;5089669;27;45354;-61
2022/03/05 00:41:14;;;;;;;;;50.75;43.50;;;;;10.21;69.94;101250.31;5060471;28;46171;-60
2022/03/05 00:43:39;;;;;;;;;47.00;41.25;;;;;10.10;70.19;101239.28;5060882;28;45221;-63
2022/03/05 00:46:05;;;;;;;;;48.50;38.50;;;;;10.17;69.93;101246.94;5078634;27;45252;-62
2022/03/05 00:48:31;;;;;;;;;45.00;41.00;;;;;10.24;70.72;101256.38;5060582;28;45615;-55
2022/03/05 00:50:56;;;;;;;;;51.50;42.50;;;;;10.23;70.58;101253.81;5060163;28;46779;-59
2022/03/05 00:53:22;;;;;;;;;46.75;40.50;;;;;10.17;70.84;101251.41;5076723;28;45369;-60
2022/03/05 00:55:48;;;;;;;;;50.25;41.50;;;;;10.22;70.89;101246.75;5078441;28;45311;-59
2022/03/05 00:58:14;;;;;;;;;63.00;48.25;;;;;10.27;70.31;101252.72;5077931;28;45417;-62
2022/03/05 01:00:40;;;;;;;;;61.25;46.75;;;;;10.11;69.91;101209.97;5079115;27;46140;-56
2022/03/05 01:03:05;;;;;;;;;63.00;48.00;;;;;10.36;69.64;101249.66;5059862;28;45407;-60
2022/03/05 01:05:31;;;;;;;;;58.50;45.50;;;;;10.33;69.19;101231.19;5078199;28;45373;-57
2022/03/05 01:07:56;;;;;;;;;62.50;48.00;;;;;10.33;69.60;101241.84;5076558;27;45452;-58
2022/03/05 01:10:22;;;;;;;;;68.25;49.00;;;;;10.28;69.98;101235.84;5046837;28;46149;-61
2022/03/05 01:12:47;;;;;;;;;57.50;48.00;;;;;10.25;69.52;101238.66;5078141;27;45449;-56
2022/03/05 01:15:16;;;;;;;;;51.50;44.50;;;;;10.25;69.88;101235.97;5080774;27;45296;-60
2022/03/05 01:17:41;;;;;;;;;46.75;40.25;;;;;10.18;70.46;101239.81;5099303;27;45233;-55
2022/03/05 01:20:08;;;;;;;;;59.50;46.50;;;;;10.10;71.56;101249.91;5079659;27;45291;-64
2022/03/05 01:22:33;;;;;;;;;65.00;48.00;;;;;10.03;70.72;101236.91;5071840;28;46145;-60
2022/03/05 01:24:59;;;;;;;;;59.50;48.75;;;;;10.13;71.28;101241.81;5060077;28;45704;-59
2022/03/05 01:27:24;;;;;;;;;62.25;48.75;;;;;10.04;70.66;101241.28;5076189;27;45663;-60
2022/03/05 01:29:53;;;;;;;;;53.75;47.50;;;;;10.10;70.13;101239.28;5078241;28;45368;-63
2022/03/05 01:32:21;;;;;;;;;60.75;47.00;;;;;10.12;69.64;101226.78;5078165;28;45432;-60
2022/03/05 01:34:46;;;;;;;;;60.00;45.25;;;;;10.21;70.75;101229.06;5059722;28;45473;-56
2022/03/05 01:37:12;;;;;;;;;60.00;45.50;;;;;10.24;70.86;101231.59;5078141;28;45494;-59
2022/03/05 01:39:41;;;;;;;;;59.00;44.50;;;;;10.26;69.71;101241.22;5077638;28;45845;-57
2022/03/05 01:42:07;;;;;;;;;48.75;38.75;;;;;10.30;70.05;101241.97;5079279;27;45362;-57
2022/03/05 01:44:33;;;;;;;;;42.50;38.00;;;;;10.31;69.72;101235.72;5056714;28;45445;-52
2022/03/05 01:47:04;;;;;;;;;47.50;40.25;;;;;10.32;69.52;101245.44;5057447;28;45669;-64
2022/03/05 01:49:30;;;;;;;;;58.75;43.25;;;;;10.34;69.40;101243.56;5056964;28;45979;-60
2022/03/05 01:51:57;;;;;;;;;44.75;37.25;;;;;10.28;68.32;101220.75;5090915;27;45409;-60
2022/03/05 01:54:24;;;;;;;;;55.50;42.25;;;;;10.36;68.54;101240.81;5098134;27;45321;-65
2022/03/05 01:56:50;;;;;;;;;55.75;43.00;;;;;10.38;68.83;101242.47;5098245;27;45450;-60
2022/03/05 01:59:16;;;;;;;;;54.25;41.50;;;;;10.27;68.97;101220.81;5079459;27;46293;-55
2022/03/05 02:01:41;;;;;;;;;52.00;39.50;;;;;10.37;68.79;101243.41;5075820;28;45307;-54
2022/03/05 02:04:07;;;;;;;;;51.75;37.00;;;;;10.36;68.76;101239.03;5081091;27;45306;-60
2022/03/05 02:06:34;;;;;;;;;47.75;39.50;;;;;10.20;68.66;101216.69;5059286;28;45617;-60
2022/03/05 02:09:00;;;;;;;;;46.50;39.00;;;;;10.34;68.71;101244.41;5058498;28;45422;-58
2022/03/05 02:11:32;;;;;;;;;54.75;42.00;;;;;10.30;68.80;101248.16;5077136;28;45433;-57
2022/03/05 02:13:59;;;;;;;;;51.50;40.50;;;;;10.28;68.03;101244.69;5077492;28;45227;-63
2022/03/05 02:16:24;;;;;;;;;46.25;40.00;;;;;10.29;68.55;101240.25;5074849;28;45335;-57
2022/03/05 02:18:55;;;;;;;;;62.75;42.50;;;;;10.29;68.04;101237.59;5077119;27;45431;-62
2022/03/05 02:21:25;;;;;;;;;51.00;40.00;;;;;10.30;69.26;101241.97;5058857;28;45449;-56
2022/03/05 02:23:52;;;;;;;;;49.50;44.00;;;;;10.27;69.04;101226.13;5075685;28;45461;-59
2022/03/05 02:26:18;;;;;;;;;46.00;36.75;;;;;10.27;69.09;101232.31;5059701;27;45487;-58
2022/03/05 02:28:43;;;;;;;;;61.25;44.00;;;;;10.29;68.39;101234.94;5057137;28;45355;-59
2022/03/05 02:31:12;;;;;;;;;58.00;39.00;;;;;10.31;69.13;101233.06;5076721;28;45299;-60
2022/03/05 02:33:39;;;;;;;;;48.50;40.50;;;;;10.28;68.49;101227.88;5076043;28;45407;-56
2022/03/05 02:36:09;;;;;;;;;62.50;44.00;;;;;10.25;68.75;101233.31;5067523;28;45367;-60
2022/03/05 02:38:35;;;;;;;;;42.00;36.25;;;;;10.27;68.13;101234.13;5056579;28;45365;-55
2022/03/05 02:41:00;;;;;;;;;56.00;44.00;;;;;10.29;68.15;101234.94;5076103;27;45426;-57
2022/03/05 02:43:26;;;;;;;;;49.50;37.25;;;;;10.27;68.19;101226.13;5051107;28;45276;-58
2022/03/05 02:45:52;;;;;;;;;44.50;37.00;;;;;10.22;67.54;101215.72;5056613;28;45295;-61
2022/03/05 02:48:19;;;;;;;;;41.75;38.50;;;;;10.32;67.82;101229.47;5073022;28;45339;-54
2022/03/05 02:50:47;;;;;;;;;46.00;37.25;;;;;10.29;67.87;101225.16;5066851;28;45500;-62
2022/03/05 02:53:12;;;;;;;;;43.75;34.50;;;;;10.21;67.72;101216.66;5076890;28;45356;-57
2022/03/05 02:55:42;;;;;;;;;54.75;40.75;;;;;10.13;68.10;101225.84;5077382;27;45468;-51
2022/03/05 02:58:07;;;;;;;;;56.50;42.00;;;;;10.04;68.32;101198.78;5080551;27;45463;-58
2022/03/05 03:00:33;;;;;;;;;49.75;38.25;;;;;10.07;67.52;101213.72;5090005;27;45322;-54
2022/03/05 03:02:59;;;;;;;;;43.25;39.00;;;;;10.13;67.97;101221.41;5076289;28;45305;-52
2022/03/05 03:05:24;;;;;;;;;34.50;26.00;;;;;10.03;68.25;101218.31;5076679;28;45350;-56
2022/03/05 03:07:55;;;;;;;;;43.50;37.75;;;;;9.88;69.42;101223.41;5076182;27;45534;-58
2022/03/05 03:10:21;;;;;;;;;44.25;38.00;;;;;9.85;68.92;101216.44;5058177;28;45230;-57
2022/03/05 03:12:47;;;;;;;;;43.00;38.00;;;;;9.89;69.00;101210.03;5076525;28;45386;-60
2022/03/05 03:15:14;;;;;;;;;40.75;33.75;;;;;9.95;68.43;101216.91;5074362;27;45341;-60
2022/03/05 03:17:43;;;;;;;;;44.00;31.50;;;;;9.95;68.28;101215.13;5074745;28;46431;-57
2022/03/05 03:20:17;;;;;;;;;37.75;32.75;;;;;9.91;68.66;101202.91;5057762;28;45722;-60
2022/03/05 03:22:43;;;;;;;;;54.00;38.00;;;;;10.03;68.57;101212.13;5082350;27;45549;-58
2022/03/05 03:25:10;;;;;;;;;36.25;30.75;;;;;9.96;68.73;101200.91;5075346;27;45381;-58
2022/03/05 03:27:35;;;;;;;;;42.00;37.25;;;;;9.99;68.05;101202.56;5075707;28;45364;-57
2022/03/05 03:30:04;;;;;;;;;43.50;37.75;;;;;10.01;68.53;101204.19;5075901;27;45264;-52
2022/03/05 03:32:30;;;;;;;;;51.00;38.50;;;;;10.04;69.51;101214.72;5095787;27;45443;-58
2022/03/05 03:34:58;;;;;;;;;53.25;42.00;;;;;10.02;68.77;101205.94;5070255;28;45562;-59
2022/03/05 03:37:28;;;;;;;;;46.00;37.50;;;;;9.95;68.35;101209.78;5077330;27;45317;-58
2022/03/05 03:39:55;;;;;;;;;40.50;34.00;;;;;10.01;68.66;101214.81;5057477;28;45276;-60
2022/03/05 03:42:22;;;;;;;;;38.50;29.75;;;;;10.03;69.01;101212.13;5074590;28;45472;-58
2022/03/05 03:44:48;;;;;;;;;39.50;35.75;;;;;10.01;68.26;101208.66;5076188;28;45389;-62
2022/03/05 03:47:13;;;;;;;;;45.00;38.25;;;;;10.04;67.85;101222.69;5076349;28;46229;-56
2022/03/05 03:49:39;;;;;;;;;41.25;37.75;;;;;10.03;68.20;101220.97;5075949;28;45311;-62
2022/03/05 03:52:07;;;;;;;;;49.50;40.50;;;;;9.96;68.14;101211.53;5083978;27;45481;-62
2022/03/05 03:54:32;;;;;;;;;43.75;33.00;;;;;9.93;68.48;101221.44;5071118;28;45360;-63
2022/03/05 03:56:58;;;;;;;;;41.00;37.50;;;;;9.91;68.63;101223.28;5080804;27;45916;-63
2022/03/05 03:59:24;;;;;;;;;37.75;34.00;;;;;9.95;68.55;101215.13;5079595;27;45501;-63
2022/03/05 04:01:49;;;;;;;;;41.00;34.50;;;;;9.95;67.67;101215.13;5065731;27;45620;-63
2022/03/05 04:04:14;;;;;;;;;42.25;35.50;;;;;9.91;68.15;101210.88;5078681;27;45559;-57
2022/03/05 04:09:24;;;;;;;;;43.50;38.50;;;;;9.91;67.83;101216.19;5079135;28;45457;-56
2022/03/05 04:11:53;;;;;;;;;43.25;38.75;;;;;9.89;67.93;101225.13;5079498;28;45421;-60
2022/03/05 04:14:18;;;;;;;;;48.25;39.00;;;;;9.85;67.32;101219.09;5078528;28;45532;-58
2022/03/05 04:16:44;;;;;;;;;41.75;36.75;;;;;9.89;67.76;101223.34;5078801;28;45941;-54
2022/03/05 04:19:09;;;;;;;;;42.75;35.50;;;;;9.88;66.82;101218.94;5078737;28;45335;-61
2022/03/05 04:21:35;;;;;;;;;47.50;37.75;;;;;9.85;67.10;101221.75;5078562;27;45744;-56
2022/03/05 04:24:01;;;;;;;;;46.50;37.25;;;;;9.82;68.07;101223.69;5080245;27;45348;-57
2022/03/05 04:26:29;;;;;;;;;41.00;35.25;;;;;9.78;68.65;101222.97;5078923;28;46053;-63
2022/03/05 04:28:57;;;;;;;;;42.75;36.50;;;;;9.77;68.35;101221.22;5060777;28;45400;-61
2022/03/05 04:31:22;;;;;;;;;47.25;38.50;;;;;9.70;67.56;101209.13;5060850;28;45480;-57
2022/03/05 04:33:48;;;;;;;;;43.75;34.50;;;;;9.80;68.44;101225.53;5078808;28;45587;-60
2022/03/05 04:36:14;;;;;;;;;43.25;36.50;;;;;9.68;68.12;101203.88;5078770;28;45380;-54
2022/03/05 04:38:39;;;;;;;;;37.50;33.25;;;;;9.69;68.18;101213.56;5043578;28;47154;-57
2022/03/05 04:41:05;;;;;;;;;41.75;37.50;;;;;9.68;67.96;101226.94;5079383;28;45169;-57
2022/03/05 04:43:31;;;;;;;;;55.00;38.50;;;;;9.58;68.43;101214.94;5061601;28;45246;-60
2022/03/05 04:45:57;;;;;;;;;31.25;27.75;;;;;9.59;68.52;101216.69;5078508;28;46184;-55
2022/03/05 04:48:23;;;;;;;;;34.00;31.25;;;;;9.66;68.04;101226.13;5079621;28;45226;-55
2022/03/05 04:50:49;;;;;;;;;44.00;33.00;;;;;9.65;69.21;101227.06;5077927;28;45275;-54
2022/03/05 04:53:15;;;;;;;;;53.75;36.75;;;;;9.60;68.99;101229.03;5066734;28;45362;-53
2022/03/05 04:55:45;;;;;;;;;36.50;29.50;;;;;9.64;69.28;101235.97;5047735;28;45442;-56
2022/03/05 04:58:10;;;;;;;;;29.75;27.00;;;;;9.59;69.30;101232.63;5044699;28;44758;-54
2022/03/05 05:00:36;;;;;;;;;48.00;37.75;;;;;9.51;69.68;101234.75;5067876;27;48219;-59
2022/03/05 05:03:01;;;;;;;;;47.25;40.25;;;;;9.37;69.99;101238.78;5049863;28;45388;-61
2022/03/05 05:05:26;;;;;;;;;38.25;33.00;;;;;9.24;70.97;101232.25;5044629;28;45442;-62
2022/03/05 05:07:52;;;;;;;;;43.75;33.25;;;;;9.13;70.19;101214.13;5064321;28;45220;-57
2022/03/05 05:10:17;;;;;;;;;39.50;36.00;;;;;9.29;69.85;101240.06;5080392;27;45387;-58
2022/03/05 05:12:43;;;;;;;;;30.50;30.00;;;;;9.25;70.21;101231.34;5076352;27;45601;-61
2022/03/05 05:15:09;;;;;;;;;37.50;32.00;;;;;9.12;70.10;101223.03;5071690;27;45962;-62
2022/03/05 05:17:36;;;;;;;;;40.00;37.50;;;;;9.23;71.02;101246.44;5056549;28;45697;-60
2022/03/05 05:20:06;;;;;;;;;42.00;37.00;;;;;9.25;70.24;101243.78;5076808;28;45413;-59
2022/03/05 05:22:32;;;;;;;;;41.00;36.50;;;;;9.26;69.78;101251.66;5077719;27;45501;-52
2022/03/05 05:24:59;;;;;;;;;39.00;33.50;;;;;9.20;70.29;101246.59;5075323;28;45449;-59
2022/03/05 05:27:27;;;;;;;;;46.00;36.75;;;;;9.14;70.98;101252.16;5078726;28;45271;-63
2022/03/05 05:29:53;;;;;;;;;37.50;27.50;;;;;9.03;71.02;101247.25;5081918;27;45477;-61
2022/03/05 05:32:18;;;;;;;;;46.25;40.50;;;;;9.04;70.77;101250.78;5092681;27;45529;-62
2022/03/05 05:34:44;;;;;;;;;38.75;31.50;;;;;9.04;71.23;101256.94;5078760;28;46015;-55
2022/03/05 05:37:10;;;;;;;;;43.00;36.75;;;;;9.06;71.05;101259.53;5078912;28;45347;-60
2022/03/05 05:39:35;;;;;;;;;33.00;33.00;;;;;9.12;69.77;101259.31;5060436;28;45426;-55
2022/03/05 05:42:02;;;;;;;;;43.25;38.00;;;;;9.17;69.92;101262.63;5063972;27;45285;-60
2022/03/05 05:44:27;;;;;;;;;27.00;26.75;;;;;9.19;70.21;101258.13;5096750;27;46119;-56
2022/03/05 05:46:53;;;;;;;;;40.50;36.75;;;;;9.05;70.74;101247.19;5098451;27;45751;-59
2022/03/05 05:49:19;;;;;;;;;35.25;32.00;;;;;9.08;70.56;101265.66;5083188;27;46006;-56
2022/03/05 05:51:45;;;;;;;;;48.00;36.00;;;;;9.02;70.79;101260.59;5077844;28;45186;-60
2022/03/05 05:54:11;;;;;;;;;45.25;36.00;;;;;9.12;70.30;101272.59;5077458;28;46212;-55
2022/03/05 05:56:36;;;;;;;;;45.00;37.50;;;;;9.08;70.40;101257.69;5076117;28;45750;-55
2022/03/05 05:59:04;;;;;;;;;41.75;35.00;;;;;9.02;71.52;101265.91;5078648;27;45563;-64
2022/03/05 06:01:29;;;;;;;;;47.50;37.75;;;;;8.98;71.10;101261.59;5093196;27;45568;-61
2022/03/05 06:03:55;;;;;;;;;37.00;33.25;;;;;9.05;70.68;101268.44;5097832;27;45318;-56
2022/03/05 06:06:21;;;;;;;;;41.75;36.75;;;;;9.11;70.57;101268.16;5084077;27;45330;-55
2022/03/05 06:08:47;;;;;;;;;47.50;37.50;;;;;9.07;71.16;101266.56;5077094;28;45377;-64
2022/03/05 06:11:13;;;;;;;;;52.25;41.75;;;;;9.02;71.75;101271.19;5077694;28;45474;-61
2022/03/05 06:13:38;;;;;;;;;49.00;40.25;;;;;8.98;70.64;101274.88;5077398;28;45943;-57
2022/03/05 06:16:05;;;;;;;;;45.75;38.75;;;;;8.98;71.14;101270.44;5064051;27;45551;-60
2022/03/05 06:18:30;;;;;;;;;52.50;39.75;;;;;8.97;70.42;101254.56;5079387;27;45513;-56
2022/03/05 06:20:56;;;;;;;;;46.00;36.75;;;;;9.10;70.66;101275.25;5076965;28;45660;-64
2022/03/05 06:23:23;;;;;;;;;48.50;38.25;;;;;8.99;70.63;101255.41;5072619;28;45301;-60
2022/03/05 06:25:49;;;;;;;;;37.75;36.50;;;;;9.05;71.19;101273.72;5077213;28;45417;-58
2022/03/05 06:28:15;;;;;;;;;49.25;39.75;;;;;9.08;70.00;101266.50;5075236;28;45437;-56
2022/03/05 06:30:40;;;;;;;;;40.50;33.50;;;;;9.11;70.71;101273.47;5076950;27;45674;-63
2022/03/05 06:33:06;;;;;;;;;51.25;41.75;;;;;9.14;70.53;101273.38;5078983;27;45683;-58
2022/03/05 06:35:34;;;;;;;;;40.75;39.25;;;;;9.16;69.80;101277.69;5076757;28;45275;-54
2022/03/05 06:38:00;;;;;;;;;44.00;38.75;;;;;9.19;69.73;101275.84;5076743;28;45539;-55
2022/03/05 06:40:26;;;;;;;;;43.50;37.00;;;;;9.02;69.68;101249.97;5075818;28;45590;-53
2022/03/05 06:42:51;;;;;;;;;52.50;38.25;;;;;9.14;70.72;101284.84;5075117;28;47572;-52
2022/03/05 06:45:17;;;;;;;;;51.00;35.75;;;;;9.19;69.77;101287.31;5075097;28;45429;-55
2022/03/05 06:47:42;;;;;;;;;42.00;39.25;;;;;9.24;70.37;101290.66;5076845;28;46184;-59
2022/03/05 06:50:12;;;;;;;;;41.75;37.75;;;;;9.26;69.64;101290.63;5075617;28;45309;-59
2022/03/05 06:52:38;;;;;;;;;50.75;40.25;;;;;9.32;69.74;101295.66;5073444;28;45953;-58
2022/03/05 06:55:05;;;;;;;;;46.25;38.50;;;;;9.35;69.64;101290.22;5080559;27;45528;-66
2022/03/05 06:57:30;;;;;;;;;45.00;41.00;;;;;9.34;69.57;101292.00;5057639;28;45448;-60
2022/03/05 06:59:56;;;;;;;;;41.25;35.00;;;;;9.24;69.78;101277.38;5078646;27;45566;-63
2022/03/05 07:02:22;;;;;;;;;52.25;38.75;;;;;9.35;70.14;101296.41;5074156;27;46331;-61
2022/03/05 07:04:48;;;;;;;;;41.50;37.50;;;;;9.38;69.09;101298.97;5079077;27;45438;-59
2022/03/05 07:07:13;;;;;;;;;46.00;39.25;;;;;9.41;69.08;101297.97;5073225;28;45344;-61
2022/03/05 07:09:40;;;;;;;;;47.50;40.25;;;;;9.41;69.04;101304.13;5075274;27;45606;-59
2022/03/05 07:12:09;;;;;;;;;47.00;37.25;;;;;9.40;69.51;101304.19;5074836;28;46141;-58
2022/03/05 07:14:35;;;;;;;;;43.25;37.25;;;;;9.42;69.58;101305.88;5075492;28;45500;-56
2022/03/05 07:17:00;;;;;;;;;46.75;40.50;;;;;9.44;68.98;101311.97;5077532;27;45375;-56
2022/03/05 07:19:26;;;;;;;;;46.00;38.75;;;;;9.43;68.77;101310.25;5057003;28;45353;-55
2022/03/05 07:21:51;;;;;;;;;41.00;35.50;;;;;9.44;69.52;101319.06;5077465;27;45928;-60
2022/03/05 07:24:17;;;;;;;;;45.75;34.50;;;;;9.28;68.64;101297.59;5076478;27;45548;-62
2022/03/05 07:26:42;;;;;;;;;43.25;38.25;;;;;9.44;68.44;101316.41;5076313;28;45467;-56
2022/03/05 07:29:08;;;;;;;;;58.50;40.00;;;;;9.46;68.30;101315.44;5074779;28;46190;-56
2022/03/05 07:31:34;;;;;;;;;48.50;39.75;;;;;9.45;68.90;101321.66;5077389;27;45444;-60
2022/03/05 07:33:59;;;;;;;;;48.75;38.50;;;;;9.45;68.81;101321.66;5058030;28;45331;-60
2022/03/05 07:36:25;;;;;;;;;49.00;41.25;;;;;9.48;69.04;101309.19;5076027;28;45409;-55
2022/03/05 07:38:51;;;;;;;;;49.25;38.25;;;;;9.53;68.48;101329.34;5058176;28;45278;-60
2022/03/05 07:41:17;;;;;;;;;59.75;41.75;;;;;9.54;68.00;101322.22;5075999;27;45291;-57
2022/03/05 07:43:44;;;;;;;;;48.25;37.75;;;;;9.62;68.48;101328.09;5078919;28;45690;-53
2022/03/05 07:46:12;;;;;;;;;46.25;41.25;;;;;9.59;68.47;101326.41;5079577;28;45414;-57
2022/03/05 07:48:38;;;;;;;;;48.25;42.00;;;;;9.53;68.35;101329.34;5059816;28;45477;-53
2022/03/05 07:51:06;;;;;;;;;48.25;40.25;;;;;9.57;68.39;101336.25;5079626;28;45929;-66
2022/03/05 07:53:32;;;;;;;;;50.50;42.00;;;;;9.58;68.17;101326.50;5074679;27;45381;-70
2022/03/05 07:55:59;;;;;;;;;44.50;37.50;;;;;9.56;68.61;101342.47;5073817;28;45223;-66
2022/03/05 07:58:25;;;;;;;;;40.75;36.50;;;;;9.58;68.54;101342.41;5079202;28;45388;-62
2022/03/05 08:00:50;;;;;;;;;38.25;35.25;;;;;9.60;68.26;101333.47;5060855;28;46219;-58
2022/03/05 08:03:16;;;;;;;;;55.00;43.00;;;;;9.66;67.56;101341.19;5096431;27;45415;-61
2022/03/05 08:05:43;;;;;;;;;45.00;38.00;;;;;9.73;68.03;101341.78;5068126;28;45338;-63
2022/03/05 08:08:09;;;;;;;;;43.25;38.50;;;;;9.66;67.34;101327.06;5079349;28;45516;-62
2022/03/05 08:10:34;;;;;;;;;41.75;35.75;;;;;9.65;67.66;101327.97;5079191;27;46315;-61
2022/03/05 08:13:00;;;;;;;;;42.50;39.25;;;;;9.70;67.54;101332.16;5079407;28;45248;-59
2022/03/05 08:15:29;;;;;;;;;45.50;38.00;;;;;9.73;67.51;101340.00;5079401;28;45256;-59
2022/03/05 08:17:57;;;;;;;;;47.50;38.50;;;;;9.74;67.98;101343.53;5079448;28;45330;-63
2022/03/05 08:20:25;;;;;;;;;50.50;39.50;;;;;9.81;67.13;101353.00;5069922;27;46956;-60
2022/03/05 08:22:51;;;;;;;;;42.00;37.75;;;;;9.74;67.69;101351.50;5079219;28;45255;-63
2022/03/05 08:25:17;;;;;;;;;59.00;43.50;;;;;9.71;67.54;101343.66;5079145;28;45150;-61
2022/03/05 08:27:52;;;;;;;;;52.75;44.50;;;;;9.80;67.25;101348.59;5078982;27;45257;-61
2022/03/05 08:30:18;;;;;;;;;45.75;37.00;;;;;9.91;67.09;101345.50;5086422;27;45278;-61
2022/03/05 08:32:44;;;;;;;;;45.50;40.50;;;;;9.88;67.02;101324.38;5100978;27;45322;-60
2022/03/05 08:35:12;;;;;;;;;45.50;36.75;;;;;10.02;67.21;101346.78;5084560;27;45473;-62
2022/03/05 08:37:45;;;;;;;;;48.50;40.50;;;;;10.05;65.70;101353.78;5079672;28;45501;-64
2022/03/05 08:40:12;;;;;;;;;47.75;39.75;;;;;9.97;66.10;101332.81;5068955;27;45564;-63
2022/03/05 08:42:42;;;;;;;;;44.00;38.25;;;;;10.16;65.81;101353.34;5077441;27;45666;-61
2022/03/05 08:45:12;;;;;;;;;47.00;40.75;;;;;10.21;65.72;101346.91;5073055;27;45573;-63
2022/03/05 08:47:52;;;;;;;;;57.25;41.25;;;;;10.19;66.07;101345.22;5066540;27;45463;-63
2022/03/05 08:50:18;;;;;;;;;51.00;43.00;;;;;10.20;66.07;101342.50;5067670;27;45681;-61
2022/03/05 08:52:44;;;;;;;;;60.50;42.50;;;;;10.30;64.94;101340.34;5058758;27;45330;-64
2022/03/05 08:55:16;;;;;;;;;57.50;41.75;;;;;10.27;65.33;101343.97;5077839;28;45389;-66
2022/03/05 08:57:48;;;;;;;;;51.25;40.50;;;;;10.32;65.19;101351.78;5061202;28;45610;-64
2022/03/05 09:00:15;;;;;;;;;44.25;38.25;;;;;10.08;65.70;101304.94;5078535;27;46232;-64
2022/03/05 09:02:42;;;;;;;;;57.25;40.50;;;;;10.31;65.51;101345.59;5071252;27;45358;-60
2022/03/05 09:05:09;;;;;;;;;36.00;34.50;;;;;10.27;66.27;101340.47;5094169;27;45488;-61
2022/03/05 09:07:35;;;;;;;;;42.50;38.00;;;;;10.33;65.50;101342.88;5078909;27;45679;-62
2022/03/05 09:10:01;;;;;;;;;53.00;41.25;;;;;10.35;65.61;101346.31;5060693;28;47604;-64
2022/03/05 09:12:26;;;;;;;;;49.25;41.75;;;;;10.47;66.41;101345.78;5084708;27;45327;-62
2022/03/05 09:14:52;;;;;;;;;50.75;41.50;;;;;10.41;65.86;101330.09;5085627;27;45489;-61
2022/03/05 09:17:17;;;;;;;;;56.50;46.00;;;;;10.58;65.14;101348.84;5079894;27;45520;-64
2022/03/05 09:19:43;;;;;;;;;48.50;42.25;;;;;10.63;64.89;101346.84;5060403;27;47549;-65
2022/03/05 09:22:17;;;;;;;;;49.75;39.25;;;;;10.74;64.29;101349.03;5078702;28;45342;-64
2022/03/05 09:24:43;;;;;;;;;47.00;38.75;;;;;10.75;64.42;101339.25;5075587;28;45552;-66
2022/03/05 09:27:11;;;;;;;;;49.00;39.00;;;;;10.88;63.96;101353.72;5076881;28;45766;-67
2022/03/05 09:29:37;;;;;;;;;47.50;39.00;;;;;10.96;64.03;101354.25;5078020;27;46083;-64
2022/03/05 09:32:07;;;;;;;;;32.25;31.75;;;;;10.98;63.30;101352.38;5068607;27;45391;-64
2022/03/05 09:34:32;;;;;;;;;34.75;34.75;;;;;10.92;62.94;101336.69;5079347;27;45527;-64
2022/03/05 09:36:58;;;;;;;;;43.25;38.00;;;;;11.05;62.98;101355.63;5079081;28;45538;-64
2022/03/05 09:39:23;;;;;;;;;62.00;49.25;;;;;11.16;63.05;101351.53;5071420;27;46605;-64
2022/03/05 09:41:53;;;;;;;;;37.00;34.25;;;;;11.14;63.13;101333.91;5065839;28;45748;-68
2022/03/05 09:47:41;;;;;;;;;50.00;38.75;;;;;11.33;61.66;101339.22;5656008;22;45994;-60
2022/03/05 09:50:08;;;;;;;;;45.25;38.75;;;;;11.42;62.50;101333.47;5049455;28;47127;-60
2022/03/05 09:52:34;;;;;;;;;47.00;39.75;;;;;11.57;61.41;101356.69;5064141;28;45347;-61
2022/03/05 09:55:01;;;;;;;;;43.50;35.50;;;;;11.64;61.49;101352.81;5062749;28;45895;-62
2022/03/05 09:57:27;;;;;;;;;50.50;39.50;;;;;11.78;61.24;101357.47;5062637;28;45255;-61
2022/03/05 09:59:52;;;;;;;;;47.50;40.00;;;;;11.74;60.32;101337.25;5062014;28;45305;-60
2022/03/05 10:02:18;;;;;;;;;48.75;40.50;;;;;11.77;61.16;101348.63;5056839;28;45963;-60
2022/03/05 10:04:44;;;;;;;;;58.75;47.50;;;;;11.79;60.60;101351.22;5043025;28;45413;-61
2022/03/05 10:07:12;;;;;;;;;49.00;38.75;;;;;11.84;60.82;101346.53;5062362;28;45694;-62
2022/03/05 10:09:39;;;;;;;;;54.50;39.50;;;;;11.85;60.58;101344.72;5069531;28;45299;-60
2022/03/05 10:12:34;;;;;;;;;55.00;46.50;;;;;11.95;60.40;101346.00;5064725;28;45433;-58
2022/03/05 10:15:05;;;;;;;;;54.75;42.00;;;;;11.97;59.97;101349.44;5061538;28;45264;-62
2022/03/05 10:17:54;;;;;;;;;54.50;43.00;;;;;11.92;60.48;101352.34;5039685;28;45530;-60
2022/03/05 10:20:25;;;;;;;;;51.00;41.00;;;;;12.01;60.40;101351.91;5057933;28;45469;-60
2022/03/05 10:22:57;;;;;;;;;46.50;38.00;;;;;12.05;59.80;101341.94;5055015;28;45635;-62
2022/03/05 10:25:33;;;;;;;;;48.00;40.25;;;;;12.14;60.23;101351.28;5062647;28;45726;-62
2022/03/05 10:28:07;;;;;;;;;53.75;42.75;;;;;12.22;59.13;101349.09;5063815;28;45234;-60
2022/03/05 10:30:35;;;;;;;;;58.50;46.25;;;;;12.24;59.06;101336.53;5067769;28;45442;-61
2022/03/05 10:33:01;;;;;;;;;50.75;40.25;;;;;12.32;59.20;101329.88;5047235;28;45283;-61
2022/03/05 10:35:27;;;;;;;;;41.00;38.00;;;;;12.45;58.65;101337.25;5063914;28;45413;-61
2022/03/05 10:37:53;;;;;;;;;49.25;40.00;;;;;12.44;59.23;101343.53;5061706;28;45403;-60
2022/03/05 10:40:26;;;;;;;;;47.50;38.00;;;;;12.30;58.56;101344.22;5064830;28;46200;-61
2022/03/05 10:42:51;;;;;;;;;54.25;46.00;;;;;12.10;58.72;101345.22;5062222;28;45422;-61
2022/03/05 10:45:18;;;;;;;;;52.00;42.75;;;;;12.23;59.25;101335.66;5063625;28;45478;-61
2022/03/05 10:47:47;;;;;;;;;55.25;42.25;;;;;12.29;58.68;101311.38;5061075;28;45413;-63
2022/03/05 10:50:18;;;;;;;;;54.75;44.50;;;;;12.40;58.24;101332.16;5062622;28;46198;-61
2022/03/05 10:52:50;;;;;;;;;57.50;45.50;;;;;12.53;57.81;101337.72;5067187;28;45447;-61
2022/03/05 10:55:18;;;;;;;;;57.50;42.00;;;;;12.49;57.23;101320.13;5063744;28;45386;-65
2022/03/05 10:58:04;;;;;;;;;54.25;44.50;;;;;12.64;57.54;101340.69;5041389;28;45670;-61
2022/03/05 11:00:30;;;;;;;;;55.50;42.50;;;;;12.84;57.34;101329.78;5045067;28;48497;-61
2022/03/05 11:02:57;;;;;;;;;56.00;43.00;;;;;12.94;56.71;101330.16;5062214;28;45255;-61
2022/03/05 11:05:23;;;;;;;;;50.75;42.75;;;;;13.08;56.10;101335.63;5063795;28;45405;-61
2022/03/05 11:07:49;;;;;;;;;51.00;42.75;;;;;13.08;55.37;101324.06;5064235;28;45480;-60
2022/03/05 11:10:21;;;;;;;;;60.50;48.00;;;;;13.07;55.67;101328.56;5038524;28;45310;-59
2022/03/05 11:12:51;;;;;;;;;54.50;42.00;;;;;13.11;54.22;101303.41;5043936;28;45404;-62
2022/03/05 11:15:18;;;;;;;;;56.00;46.25;;;;;13.33;54.45;101327.16;5061289;28;45242;-62
2022/03/05 11:17:46;;;;;;;;;41.50;37.50;;;;;13.33;53.25;101321.81;5063870;28;45574;-62